sensor_id;sensor_type;location;lat;lon;timestamp;pressure;altitude;pressure_sealevel;temperature
24278;BMP280;12394;42.692;23.314;2024-01-25T00:01:28;95548.84;;;4.67
24278;BMP280;12394;42.692;23.314;2024-01-25T00:03:53;95548.69;;;4.75
24278;BMP280;12394;42.692;23.314;2024-01-25T00:06:19;95528.88;;;4.83
24278;BMP280;12394;42.692;23.314;2024-01-25T00:08:46;95537.66;;;5.10
24278;BMP280;12394;42.692;23.314;2024-01-25T00:11:11;95528.50;;;5.31
24278;BMP280;12394;42.692;23.314;2024-01-25T00:13:37;95511.94;;;5.36
24278;BMP280;12394;42.692;23.314;2024-01-25T00:16:04;95498.59;;;5.03
24278;BMP280;12394;42.692;23.314;2024-01-25T00:18:30;95483.22;;;4.94
24278;BMP280;12394;42.692;23.314;2024-01-25T00:20:55;95455.84;;;5.12
24278;BMP280;12394;42.692;23.314;2024-01-25T00:23:21;95454.84;;;5.17
24278;BMP280;12394;42.692;23.314;2024-01-25T00:25:46;95447.91;;;5.05
24278;BMP280;12394;42.692;23.314;2024-01-25T00:28:12;95444.59;;;4.89
24278;BMP280;12394;42.692;23.314;2024-01-25T00:30:39;95449.53;;;4.78
24278;BMP280;12394;42.692;23.314;2024-01-25T00:33:04;95462.16;;;4.48
24278;BMP280;12394;42.692;23.314;2024-01-25T00:35:30;95467.25;;;4.45
24278;BMP280;12394;42.692;23.314;2024-01-25T00:37:56;95459.13;;;4.46
24278;BMP280;12394;42.692;23.314;2024-01-25T00:40:22;95447.00;;;4.51
24278;BMP280;12394;42.692;23.314;2024-01-25T00:42:47;95449.13;;;4.61
24278;BMP280;12394;42.692;23.314;2024-01-25T00:45:23;95441.41;;;4.80
24278;BMP280;12394;42.692;23.314;2024-01-25T00:47:49;95443.16;;;4.91
24278;BMP280;12394;42.692;23.314;2024-01-25T00:50:15;95427.00;;;4.98
24278;BMP280;12394;42.692;23.314;2024-01-25T00:52:47;95417.41;;;4.83
24278;BMP280;12394;42.692;23.314;2024-01-25T00:55:13;95425.81;;;4.76
24278;BMP280;12394;42.692;23.314;2024-01-25T00:57:39;95439.66;;;4.68
24278;BMP280;12394;42.692;23.314;2024-01-25T01:00:05;95457.06;;;4.68
24278;BMP280;12394;42.692;23.314;2024-01-25T01:02:35;95454.63;;;4.75
24278;BMP280;12394;42.692;23.314;2024-01-25T01:05:01;95459.38;;;4.73
24278;BMP280;12394;42.692;23.314;2024-01-25T01:07:27;95456.28;;;4.83
24278;BMP280;12394;42.692;23.314;2024-01-25T01:09:52;95460.81;;;4.86
24278;BMP280;12394;42.692;23.314;2024-01-25T01:12:18;95453.63;;;4.95
24278;BMP280;12394;42.692;23.314;2024-01-25T01:14:44;95437.53;;;5.05
24278;BMP280;12394;42.692;23.314;2024-01-25T01:17:09;95432.19;;;5.33
24278;BMP280;12394;42.692;23.314;2024-01-25T01:19:35;95414.13;;;5.56
24278;BMP280;12394;42.692;23.314;2024-01-25T01:22:00;95401.84;;;5.53
24278;BMP280;12394;42.692;23.314;2024-01-25T01:24:26;95392.88;;;5.31
24278;BMP280;12394;42.692;23.314;2024-01-25T01:26:51;95374.91;;;5.03
24278;BMP280;12394;42.692;23.314;2024-01-25T01:29:17;95372.97;;;5.00
24278;BMP280;12394;42.692;23.314;2024-01-25T01:31:43;95375.84;;;4.95
24278;BMP280;12394;42.692;23.314;2024-01-25T01:34:09;95383.88;;;4.90
24278;BMP280;12394;42.692;23.314;2024-01-25T01:36:34;95390.56;;;4.91
24278;BMP280;12394;42.692;23.314;2024-01-25T01:39:00;95387.63;;;4.92
24278;BMP280;12394;42.692;23.314;2024-01-25T01:41:25;95369.28;;;5.01
24278;BMP280;12394;42.692;23.314;2024-01-25T01:43:54;95383.34;;;5.00
24278;BMP280;12394;42.692;23.314;2024-01-25T01:48:57;95354.91;;;5.04
24278;BMP280;12394;42.692;23.314;2024-01-25T01:51:23;95369.00;;;5.22
24278;BMP280;12394;42.692;23.314;2024-01-25T01:53:49;95358.53;;;5.18
24278;BMP280;12394;42.692;23.314;2024-01-25T01:56:15;95362.38;;;5.24
24278;BMP280;12394;42.692;23.314;2024-01-25T01:58:41;95371.72;;;5.29
24278;BMP280;12394;42.692;23.314;2024-01-25T02:01:07;95364.94;;;5.24
24278;BMP280;12394;42.692;23.314;2024-01-25T02:03:33;95360.19;;;5.26
24278;BMP280;12394;42.692;23.314;2024-01-25T02:05:59;95359.91;;;5.31
24278;BMP280;12394;42.692;23.314;2024-01-25T02:08:29;95350.97;;;5.29
24278;BMP280;12394;42.692;23.314;2024-01-25T02:10:55;95353.03;;;5.39
24278;BMP280;12394;42.692;23.314;2024-01-25T02:13:21;95348.00;;;5.50
24278;BMP280;12394;42.692;23.314;2024-01-25T02:15:46;95359.91;;;5.51
24278;BMP280;12394;42.692;23.314;2024-01-25T02:18:12;95363.72;;;5.57
24278;BMP280;12394;42.692;23.314;2024-01-25T02:20:38;95356.28;;;5.55
24278;BMP280;12394;42.692;23.314;2024-01-25T02:23:03;95348.31;;;5.45
24278;BMP280;12394;42.692;23.314;2024-01-25T02:25:29;95356.75;;;5.61
24278;BMP280;12394;42.692;23.314;2024-01-25T02:27:54;95353.00;;;5.58
24278;BMP280;12394;42.692;23.314;2024-01-25T02:30:20;95349.94;;;5.53
24278;BMP280;12394;42.692;23.314;2024-01-25T02:32:45;95351.63;;;5.45
24278;BMP280;12394;42.692;23.314;2024-01-25T02:35:11;95347.47;;;5.41
24278;BMP280;12394;42.692;23.314;2024-01-25T02:37:36;95338.53;;;5.38
24278;BMP280;12394;42.692;23.314;2024-01-25T02:40:02;95339.28;;;5.38
24278;BMP280;12394;42.692;23.314;2024-01-25T02:42:28;95337.34;;;5.55
24278;BMP280;12394;42.692;23.314;2024-01-25T02:44:54;95327.25;;;5.50
24278;BMP280;12394;42.692;23.314;2024-01-25T02:47:19;95326.41;;;5.65
24278;BMP280;12394;42.692;23.314;2024-01-25T02:49:45;95328.63;;;5.63
24278;BMP280;12394;42.692;23.314;2024-01-25T02:52:10;95328.47;;;5.75
24278;BMP280;12394;42.692;23.314;2024-01-25T02:54:36;95310.25;;;5.71
24278;BMP280;12394;42.692;23.314;2024-01-25T02:57:04;95337.72;;;5.95
24278;BMP280;12394;42.692;23.314;2024-01-25T02:59:30;95332.75;;;6.09
24278;BMP280;12394;42.692;23.314;2024-01-25T03:01:56;95338.19;;;6.23
24278;BMP280;12394;42.692;23.314;2024-01-25T03:04:22;95334.00;;;6.15
24278;BMP280;12394;42.692;23.314;2024-01-25T03:06:47;95321.56;;;6.28
24278;BMP280;12394;42.692;23.314;2024-01-25T03:09:12;95332.03;;;6.58
24278;BMP280;12394;42.692;23.314;2024-01-25T03:11:38;95341.88;;;6.72
24278;BMP280;12394;42.692;23.314;2024-01-25T03:14:03;95340.63;;;6.88
24278;BMP280;12394;42.692;23.314;2024-01-25T03:16:29;95334.59;;;7.10
24278;BMP280;12394;42.692;23.314;2024-01-25T03:18:54;95335.16;;;7.27
24278;BMP280;12394;42.692;23.314;2024-01-25T03:21:20;95326.69;;;7.33
24278;BMP280;12394;42.692;23.314;2024-01-25T03:23:45;95317.53;;;7.46
24278;BMP280;12394;42.692;23.314;2024-01-25T03:26:11;95308.28;;;7.49
24278;BMP280;12394;42.692;23.314;2024-01-25T03:28:36;95321.31;;;7.52
24278;BMP280;12394;42.692;23.314;2024-01-25T03:31:03;95319.84;;;7.55
24278;BMP280;12394;42.692;23.314;2024-01-25T03:33:29;95323.56;;;7.54
24278;BMP280;12394;42.692;23.314;2024-01-25T03:35:54;95330.19;;;7.48
24278;BMP280;12394;42.692;23.314;2024-01-25T03:38:20;95322.03;;;7.49
24278;BMP280;12394;42.692;23.314;2024-01-25T03:40:46;95309.03;;;7.49
24278;BMP280;12394;42.692;23.314;2024-01-25T03:43:11;95299.78;;;7.55
24278;BMP280;12394;42.692;23.314;2024-01-25T03:45:37;95293.13;;;7.58
24278;BMP280;12394;42.692;23.314;2024-01-25T03:48:02;95303.91;;;7.60
24278;BMP280;12394;42.692;23.314;2024-01-25T03:50:28;95302.75;;;7.54
24278;BMP280;12394;42.692;23.314;2024-01-25T03:52:53;95303.47;;;7.54
24278;BMP280;12394;42.692;23.314;2024-01-25T03:55:19;95290.09;;;7.56
24278;BMP280;12394;42.692;23.314;2024-01-25T03:57:45;95282.31;;;7.56
24278;BMP280;12394;42.692;23.314;2024-01-25T04:00:11;95273.69;;;7.48
24278;BMP280;12394;42.692;23.314;2024-01-25T04:02:36;95282.59;;;7.47
24278;BMP280;12394;42.692;23.314;2024-01-25T04:05:02;95269.97;;;7.49
24278;BMP280;12394;42.692;23.314;2024-01-25T04:07:28;95276.38;;;7.59
24278;BMP280;12394;42.692;23.314;2024-01-25T04:09:53;95271.56;;;7.61
24278;BMP280;12394;42.692;23.314;2024-01-25T04:12:19;95259.31;;;7.62
24278;BMP280;12394;42.692;23.314;2024-01-25T04:14:44;95265.72;;;7.71
24278;BMP280;12394;42.692;23.314;2024-01-25T04:17:10;95268.63;;;7.66
24278;BMP280;12394;42.692;23.314;2024-01-25T04:19:36;95272.28;;;7.58
24278;BMP280;12394;42.692;23.314;2024-01-25T04:22:01;95264.03;;;7.49
24278;BMP280;12394;42.692;23.314;2024-01-25T04:24:27;95272.13;;;7.40
24278;BMP280;12394;42.692;23.314;2024-01-25T04:26:52;95268.25;;;7.27
24278;BMP280;12394;42.692;23.314;2024-01-25T04:29:18;95272.56;;;7.12
24278;BMP280;12394;42.692;23.314;2024-01-25T04:31:44;95272.09;;;7.03
24278;BMP280;12394;42.692;23.314;2024-01-25T04:34:10;95265.97;;;6.89
24278;BMP280;12394;42.692;23.314;2024-01-25T04:36:36;95253.84;;;6.70
24278;BMP280;12394;42.692;23.314;2024-01-25T04:39:01;95277.38;;;6.81
24278;BMP280;12394;42.692;23.314;2024-01-25T04:41:27;95289.53;;;6.73
24278;BMP280;12394;42.692;23.314;2024-01-25T04:43:52;95291.63;;;6.64
24278;BMP280;12394;42.692;23.314;2024-01-25T04:46:18;95301.16;;;6.53
24278;BMP280;12394;42.692;23.314;2024-01-25T04:48:43;95289.84;;;6.42
24278;BMP280;12394;42.692;23.314;2024-01-25T04:51:18;95311.50;;;6.49
24278;BMP280;12394;42.692;23.314;2024-01-25T04:53:43;95307.22;;;6.38
24278;BMP280;12394;42.692;23.314;2024-01-25T04:56:09;95295.94;;;6.27
24278;BMP280;12394;42.692;23.314;2024-01-25T04:58:35;95310.16;;;6.36
24278;BMP280;12394;42.692;23.314;2024-01-25T05:01:00;95305.72;;;6.37
24278;BMP280;12394;42.692;23.314;2024-01-25T05:03:26;95303.31;;;6.24
24278;BMP280;12394;42.692;23.314;2024-01-25T05:05:51;95334.84;;;6.23
24278;BMP280;12394;42.692;23.314;2024-01-25T05:08:17;95322.59;;;6.23
24278;BMP280;12394;42.692;23.314;2024-01-25T05:10:43;95335.31;;;6.29
24278;BMP280;12394;42.692;23.314;2024-01-25T05:13:08;95334.16;;;6.26
24278;BMP280;12394;42.692;23.314;2024-01-25T05:15:34;95335.19;;;6.21
24278;BMP280;12394;42.692;23.314;2024-01-25T05:18:00;95363.50;;;6.27
24278;BMP280;12394;42.692;23.314;2024-01-25T05:20:26;95362.78;;;6.30
24278;BMP280;12394;42.692;23.314;2024-01-25T05:23:02;95374.44;;;6.39
24278;BMP280;12394;42.692;23.314;2024-01-25T05:25:28;95387.16;;;6.44
24278;BMP280;12394;42.692;23.314;2024-01-25T05:27:55;95373.69;;;6.39
24278;BMP280;12394;42.692;23.314;2024-01-25T05:30:21;95359.25;;;6.41
24278;BMP280;12394;42.692;23.314;2024-01-25T05:32:47;95364.53;;;6.45
24278;BMP280;12394;42.692;23.314;2024-01-25T05:35:15;95381.72;;;6.53
24278;BMP280;12394;42.692;23.314;2024-01-25T05:37:41;95374.25;;;6.51
24278;BMP280;12394;42.692;23.314;2024-01-25T05:40:06;95354.81;;;6.42
24278;BMP280;12394;42.692;23.314;2024-01-25T05:42:32;95368.31;;;6.51
24278;BMP280;12394;42.692;23.314;2024-01-25T05:44:58;95368.97;;;6.44
24278;BMP280;12394;42.692;23.314;2024-01-25T05:47:24;95359.91;;;6.35
24278;BMP280;12394;42.692;23.314;2024-01-25T05:49:49;95382.47;;;6.53
24278;BMP280;12394;42.692;23.314;2024-01-25T05:52:15;95395.91;;;6.59
24278;BMP280;12394;42.692;23.314;2024-01-25T05:54:40;95393.44;;;6.66
24278;BMP280;12394;42.692;23.314;2024-01-25T05:57:06;95398.97;;;6.64
24278;BMP280;12394;42.692;23.314;2024-01-25T05:59:32;95388.56;;;6.64
24278;BMP280;12394;42.692;23.314;2024-01-25T06:01:57;95396.38;;;6.64
24278;BMP280;12394;42.692;23.314;2024-01-25T06:04:23;95402.72;;;6.67
24278;BMP280;12394;42.692;23.314;2024-01-25T06:06:48;95394.13;;;6.63
24278;BMP280;12394;42.692;23.314;2024-01-25T06:09:14;95393.44;;;6.66
24278;BMP280;12394;42.692;23.314;2024-01-25T06:11:40;95401.41;;;6.54
24278;BMP280;12394;42.692;23.314;2024-01-25T06:14:06;95402.22;;;6.58
24278;BMP280;12394;42.692;23.314;2024-01-25T06:16:31;95396.53;;;6.75
24278;BMP280;12394;42.692;23.314;2024-01-25T06:18:57;95409.34;;;6.87
24278;BMP280;12394;42.692;23.314;2024-01-25T06:21:25;95419.72;;;6.87
24278;BMP280;12394;42.692;23.314;2024-01-25T06:23:51;95418.69;;;6.92
24278;BMP280;12394;42.692;23.314;2024-01-25T06:26:16;95422.53;;;7.01
24278;BMP280;12394;42.692;23.314;2024-01-25T06:28:41;95416.13;;;6.95
24278;BMP280;12394;42.692;23.314;2024-01-25T06:31:07;95410.09;;;6.88
24278;BMP280;12394;42.692;23.314;2024-01-25T06:33:32;95429.47;;;6.90
24278;BMP280;12394;42.692;23.314;2024-01-25T06:36:00;95418.94;;;6.83
24278;BMP280;12394;42.692;23.314;2024-01-25T06:38:25;95432.09;;;6.94
24278;BMP280;12394;42.692;23.314;2024-01-25T06:40:51;95423.13;;;6.91
24278;BMP280;12394;42.692;23.314;2024-01-25T06:43:16;95411.25;;;6.90
24278;BMP280;12394;42.692;23.314;2024-01-25T06:45:42;95400.84;;;6.90
24278;BMP280;12394;42.692;23.314;2024-01-25T06:48:07;95395.06;;;6.78
24278;BMP280;12394;42.692;23.314;2024-01-25T06:50:36;95420.66;;;6.98
24278;BMP280;12394;42.692;23.314;2024-01-25T06:53:03;95420.44;;;6.84
24278;BMP280;12394;42.692;23.314;2024-01-25T06:55:29;95421.16;;;6.81
24278;BMP280;12394;42.692;23.314;2024-01-25T06:57:54;95419.72;;;6.87
24278;BMP280;12394;42.692;23.314;2024-01-25T07:00:20;95422.34;;;6.87
24278;BMP280;12394;42.692;23.314;2024-01-25T07:02:47;95427.34;;;6.99
24278;BMP280;12394;42.692;23.314;2024-01-25T07:05:13;95407.34;;;7.03
24278;BMP280;12394;42.692;23.314;2024-01-25T07:07:38;95395.94;;;7.11
24278;BMP280;12394;42.692;23.314;2024-01-25T07:10:07;95413.16;;;7.23
24278;BMP280;12394;42.692;23.314;2024-01-25T07:12:32;95397.66;;;7.30
24278;BMP280;12394;42.692;23.314;2024-01-25T07:14:58;95389.72;;;7.20
24278;BMP280;12394;42.692;23.314;2024-01-25T07:17:23;95366.28;;;7.20
24278;BMP280;12394;42.692;23.314;2024-01-25T07:19:49;95375.38;;;7.33
24278;BMP280;12394;42.692;23.314;2024-01-25T07:22:14;95379.63;;;7.44
24278;BMP280;12394;42.692;23.314;2024-01-25T07:24:42;95383.00;;;7.48
24278;BMP280;12394;42.692;23.314;2024-01-25T07:27:08;95378.34;;;7.31
24278;BMP280;12394;42.692;23.314;2024-01-25T07:29:33;95378.00;;;7.36
24278;BMP280;12394;42.692;23.314;2024-01-25T07:31:59;95400.16;;;7.53
24278;BMP280;12394;42.692;23.314;2024-01-25T07:34:24;95404.19;;;7.47
24278;BMP280;12394;42.692;23.314;2024-01-25T07:36:50;95390.41;;;7.46
24278;BMP280;12394;42.692;23.314;2024-01-25T07:39:15;95392.84;;;7.62
24278;BMP280;12394;42.692;23.314;2024-01-25T07:41:40;95374.75;;;7.43
24278;BMP280;12394;42.692;23.314;2024-01-25T07:44:06;95378.38;;;7.35
24278;BMP280;12394;42.692;23.314;2024-01-25T07:46:32;95408.13;;;7.34
24278;BMP280;12394;42.692;23.314;2024-01-25T07:48:57;95386.41;;;7.52
24278;BMP280;12394;42.692;23.314;2024-01-25T07:51:22;95418.09;;;7.58
24278;BMP280;12394;42.692;23.314;2024-01-25T07:53:48;95414.53;;;7.73
24278;BMP280;12394;42.692;23.314;2024-01-25T07:56:13;95419.59;;;7.96
24278;BMP280;12394;42.692;23.314;2024-01-25T07:58:40;95429.41;;;8.43
24278;BMP280;12394;42.692;23.314;2024-01-25T08:01:06;95430.94;;;9.60
24278;BMP280;12394;42.692;23.314;2024-01-25T08:03:32;95428.09;;;9.97
24278;BMP280;12394;42.692;23.314;2024-01-25T08:05:59;95429.59;;;10.02
24278;BMP280;12394;42.692;23.314;2024-01-25T08:08:25;95425.00;;;9.70
24278;BMP280;12394;42.692;23.314;2024-01-25T08:10:50;95421.91;;;9.40
24278;BMP280;12394;42.692;23.314;2024-01-25T08:13:16;95427.19;;;8.92
24278;BMP280;12394;42.692;23.314;2024-01-25T08:15:41;95423.66;;;8.67
24278;BMP280;12394;42.692;23.314;2024-01-25T08:18:07;95418.97;;;8.39
24278;BMP280;12394;42.692;23.314;2024-01-25T08:20:32;95426.06;;;8.46
24278;BMP280;12394;42.692;23.314;2024-01-25T08:22:58;95420.84;;;8.46
24278;BMP280;12394;42.692;23.314;2024-01-25T08:25:25;95416.75;;;8.45
24278;BMP280;12394;42.692;23.314;2024-01-25T08:27:50;95408.44;;;8.32
24278;BMP280;12394;42.692;23.314;2024-01-25T08:30:16;95417.91;;;8.47
24278;BMP280;12394;42.692;23.314;2024-01-25T08:32:41;95418.06;;;8.69
24278;BMP280;12394;42.692;23.314;2024-01-25T08:35:07;95412.53;;;8.77
24278;BMP280;12394;42.692;23.314;2024-01-25T08:37:33;95421.66;;;9.01
24278;BMP280;12394;42.692;23.314;2024-01-25T08:39:58;95428.31;;;8.95
24278;BMP280;12394;42.692;23.314;2024-01-25T08:42:24;95427.53;;;8.87
24278;BMP280;12394;42.692;23.314;2024-01-25T08:44:49;95430.56;;;8.97
24278;BMP280;12394;42.692;23.314;2024-01-25T08:47:17;95440.34;;;9.07
24278;BMP280;12394;42.692;23.314;2024-01-25T08:49:42;95429.91;;;9.10
24278;BMP280;12394;42.692;23.314;2024-01-25T08:52:08;95425.69;;;8.95
24278;BMP280;12394;42.692;23.314;2024-01-25T08:54:34;95429.22;;;9.17
24278;BMP280;12394;42.692;23.314;2024-01-25T08:57:02;95425.81;;;9.09
24278;BMP280;12394;42.692;23.314;2024-01-25T08:59:28;95428.16;;;9.28
24278;BMP280;12394;42.692;23.314;2024-01-25T09:01:56;95427.53;;;9.49
24278;BMP280;12394;42.692;23.314;2024-01-25T09:04:21;95421.28;;;9.78
24278;BMP280;12394;42.692;23.314;2024-01-25T09:06:47;95422.09;;;9.90
24278;BMP280;12394;42.692;23.314;2024-01-25T09:09:13;95426.94;;;9.91
24278;BMP280;12394;42.692;23.314;2024-01-25T09:11:39;95437.81;;;10.14
24278;BMP280;12394;42.692;23.314;2024-01-25T09:14:04;95440.94;;;10.66
24278;BMP280;12394;42.692;23.314;2024-01-25T09:16:30;95431.22;;;10.70
24278;BMP280;12394;42.692;23.314;2024-01-25T09:18:55;95445.75;;;10.39
24278;BMP280;12394;42.692;23.314;2024-01-25T09:21:21;95443.91;;;10.43
24278;BMP280;12394;42.692;23.314;2024-01-25T09:23:46;95448.38;;;10.39
24278;BMP280;12394;42.692;23.314;2024-01-25T09:26:12;95453.44;;;11.91
24278;BMP280;12394;42.692;23.314;2024-01-25T09:28:37;95444.50;;;11.68
24278;BMP280;12394;42.692;23.314;2024-01-25T09:31:03;95444.59;;;11.36
24278;BMP280;12394;42.692;23.314;2024-01-25T09:33:29;95436.06;;;10.86
24278;BMP280;12394;42.692;23.314;2024-01-25T09:35:55;95388.22;;;10.25
24278;BMP280;12394;42.692;23.314;2024-01-25T09:38:21;95440.19;;;10.62
24278;BMP280;12394;42.692;23.314;2024-01-25T09:40:47;95431.94;;;10.60
24278;BMP280;12394;42.692;23.314;2024-01-25T09:43:33;95419.63;;;10.78
24278;BMP280;12394;42.692;23.314;2024-01-25T09:46:00;95403.91;;;10.75
24278;BMP280;12394;42.692;23.314;2024-01-25T09:48:26;95420.75;;;10.84
24278;BMP280;12394;42.692;23.314;2024-01-25T09:50:54;95407.28;;;10.64
24278;BMP280;12394;42.692;23.314;2024-01-25T09:53:23;95408.03;;;10.58
24278;BMP280;12394;42.692;23.314;2024-01-25T09:56:05;95393.81;;;10.41
24278;BMP280;12394;42.692;23.314;2024-01-25T09:58:44;95399.06;;;10.48
24278;BMP280;12394;42.692;23.314;2024-01-25T10:01:12;95393.06;;;10.30
24278;BMP280;12394;42.692;23.314;2024-01-25T10:03:45;95393.06;;;10.19
24278;BMP280;12394;42.692;23.314;2024-01-25T10:06:12;95386.28;;;10.11
24278;BMP280;12394;42.692;23.314;2024-01-25T10:08:38;95372.84;;;9.99
24278;BMP280;12394;42.692;23.314;2024-01-25T10:11:04;95365.75;;;10.10
24278;BMP280;12394;42.692;23.314;2024-01-25T10:13:30;95368.44;;;10.31
24278;BMP280;12394;42.692;23.314;2024-01-25T10:15:56;95365.41;;;10.54
24278;BMP280;12394;42.692;23.314;2024-01-25T10:18:22;95373.63;;;10.59
24278;BMP280;12394;42.692;23.314;2024-01-25T10:20:48;95367.69;;;10.62
24278;BMP280;12394;42.692;23.314;2024-01-25T10:23:13;95366.53;;;10.56
24278;BMP280;12394;42.692;23.314;2024-01-25T10:25:39;95374.38;;;10.88
24278;BMP280;12394;42.692;23.314;2024-01-25T10:28:05;95363.81;;;11.24
24278;BMP280;12394;42.692;23.314;2024-01-25T10:30:35;95369.44;;;12.09
24278;BMP280;12394;42.692;23.314;2024-01-25T10:33:02;95366.94;;;12.46
24278;BMP280;12394;42.692;23.314;2024-01-25T10:35:31;95381.38;;;12.69
24278;BMP280;12394;42.692;23.314;2024-01-25T10:37:57;95376.09;;;13.13
24278;BMP280;12394;42.692;23.314;2024-01-25T10:40:23;95368.06;;;12.90
24278;BMP280;12394;42.692;23.314;2024-01-25T10:42:49;95370.16;;;12.65
24278;BMP280;12394;42.692;23.314;2024-01-25T10:45:15;95350.63;;;12.21
24278;BMP280;12394;42.692;23.314;2024-01-25T10:47:41;95356.84;;;11.86
24278;BMP280;12394;42.692;23.314;2024-01-25T10:50:12;95348.28;;;11.72
24278;BMP280;12394;42.692;23.314;2024-01-25T10:52:39;95347.19;;;11.58
24278;BMP280;12394;42.692;23.314;2024-01-25T10:55:06;95352.50;;;11.48
24278;BMP280;12394;42.692;23.314;2024-01-25T10:57:41;95344.94;;;11.75
24278;BMP280;12394;42.692;23.314;2024-01-25T11:00:10;95334.53;;;11.53
24278;BMP280;12394;42.692;23.314;2024-01-25T11:02:36;95334.78;;;11.77
24278;BMP280;12394;42.692;23.314;2024-01-25T11:05:09;95344.19;;;11.67
24278;BMP280;12394;42.692;23.314;2024-01-25T11:08:01;95334.53;;;11.53
24278;BMP280;12394;42.692;23.314;2024-01-25T11:10:51;95328.66;;;11.25
24278;BMP280;12394;42.692;23.314;2024-01-25T11:13:23;95320.50;;;10.98
24278;BMP280;12394;42.692;23.314;2024-01-25T11:15:49;95308.91;;;10.99
24278;BMP280;12394;42.692;23.314;2024-01-25T11:18:16;95305.50;;;11.05
24278;BMP280;12394;42.692;23.314;2024-01-25T11:20:41;95287.63;;;10.90
24278;BMP280;12394;42.692;23.314;2024-01-25T11:23:07;95289.53;;;10.72
24278;BMP280;12394;42.692;23.314;2024-01-25T11:25:37;95284.72;;;10.42
24278;BMP280;12394;42.692;23.314;2024-01-25T11:28:04;95283.94;;;9.92
24278;BMP280;12394;42.692;23.314;2024-01-25T11:30:32;95240.63;;;9.62
24278;BMP280;12394;42.692;23.314;2024-01-25T11:32:59;95281.31;;;9.70
24278;BMP280;12394;42.692;23.314;2024-01-25T11:35:25;95270.47;;;9.61
24278;BMP280;12394;42.692;23.314;2024-01-25T11:37:50;95268.22;;;9.60
24278;BMP280;12394;42.692;23.314;2024-01-25T11:40:19;95275.66;;;9.47
24278;BMP280;12394;42.692;23.314;2024-01-25T11:42:49;95281.25;;;9.42
24278;BMP280;12394;42.692;23.314;2024-01-25T11:45:16;95277.47;;;9.22
24278;BMP280;12394;42.692;23.314;2024-01-25T11:47:42;95278.88;;;9.05
24278;BMP280;12394;42.692;23.314;2024-01-25T11:50:09;95278.47;;;9.00
24278;BMP280;12394;42.692;23.314;2024-01-25T11:52:36;95280.75;;;9.01
24278;BMP280;12394;42.692;23.314;2024-01-25T11:55:06;95254.22;;;8.88
24278;BMP280;12394;42.692;23.314;2024-01-25T11:57:40;95261.38;;;9.02
24278;BMP280;12394;42.692;23.314;2024-01-25T12:00:12;95262.88;;;9.07
24278;BMP280;12394;42.692;23.314;2024-01-25T12:02:39;95263.97;;;9.06
24278;BMP280;12394;42.692;23.314;2024-01-25T12:05:06;95277.03;;;9.06
24278;BMP280;12394;42.692;23.314;2024-01-25T12:07:32;95280.00;;;9.01
24278;BMP280;12394;42.692;23.314;2024-01-25T12:10:16;95276.63;;;9.00
24278;BMP280;12394;42.692;23.314;2024-01-25T12:12:45;95276.22;;;8.91
24278;BMP280;12394;42.692;23.314;2024-01-25T12:15:11;95266.59;;;9.02
24278;BMP280;12394;42.692;23.314;2024-01-25T12:17:36;95264.38;;;9.15
24278;BMP280;12394;42.692;23.314;2024-01-25T12:20:04;95264.31;;;9.01
24278;BMP280;12394;42.692;23.314;2024-01-25T12:22:36;95253.91;;;9.04
24278;BMP280;12394;42.692;23.314;2024-01-25T12:25:06;95252.47;;;9.21
24278;BMP280;12394;42.692;23.314;2024-01-25T12:27:33;95260.00;;;9.54
24278;BMP280;12394;42.692;23.314;2024-01-25T12:29:58;95266.03;;;9.79
24278;BMP280;12394;42.692;23.314;2024-01-25T12:32:24;95260.06;;;10.04
24278;BMP280;12394;42.692;23.314;2024-01-25T12:34:56;95258.94;;;10.05
24278;BMP280;12394;42.692;23.314;2024-01-25T12:37:42;95248.88;;;10.35
24278;BMP280;12394;42.692;23.314;2024-01-25T12:40:08;95225.72;;;10.23
24278;BMP280;12394;42.692;23.314;2024-01-25T12:42:33;95227.56;;;10.37
24278;BMP280;12394;42.692;23.314;2024-01-25T12:45:02;95210.72;;;10.41
24278;BMP280;12394;42.692;23.314;2024-01-25T12:47:27;95209.97;;;10.41
24278;BMP280;12394;42.692;23.314;2024-01-25T12:49:53;95217.50;;;10.35
24278;BMP280;12394;42.692;23.314;2024-01-25T12:52:18;95199.53;;;10.44
24278;BMP280;12394;42.692;23.314;2024-01-25T12:54:44;95187.50;;;10.72
24278;BMP280;12394;42.692;23.314;2024-01-25T12:57:09;95200.91;;;10.81
24278;BMP280;12394;42.692;23.314;2024-01-25T12:59:36;95191.19;;;10.85
24278;BMP280;12394;42.692;23.314;2024-01-25T13:02:03;95157.06;;;10.99
24278;BMP280;12394;42.692;23.314;2024-01-25T13:04:29;95184.72;;;11.03
24278;BMP280;12394;42.692;23.314;2024-01-25T13:06:56;95193.34;;;10.97
24278;BMP280;12394;42.692;23.314;2024-01-25T13:09:23;95180.63;;;10.95
24278;BMP280;12394;42.692;23.314;2024-01-25T13:11:49;95159.53;;;10.47
24278;BMP280;12394;42.692;23.314;2024-01-25T13:14:16;95168.94;;;10.27
24278;BMP280;12394;42.692;23.314;2024-01-25T13:16:42;95173.44;;;10.16
24278;BMP280;12394;42.692;23.314;2024-01-25T13:19:07;95185.41;;;10.17
24278;BMP280;12394;42.692;23.314;2024-01-25T13:21:33;95202.94;;;10.13
24278;BMP280;12394;42.692;23.314;2024-01-25T13:23:59;95183.16;;;9.94
24278;BMP280;12394;42.692;23.314;2024-01-25T13:26:25;95194.34;;;10.02
24278;BMP280;12394;42.692;23.314;2024-01-25T13:28:51;95209.28;;;9.94
24278;BMP280;12394;42.692;23.314;2024-01-25T13:31:17;95216.00;;;9.77
24278;BMP280;12394;42.692;23.314;2024-01-25T13:33:42;95191.75;;;9.88
24278;BMP280;12394;42.692;23.314;2024-01-25T13:36:08;95185.41;;;9.60
24278;BMP280;12394;42.692;23.314;2024-01-25T13:38:36;95174.16;;;9.28
24278;BMP280;12394;42.692;23.314;2024-01-25T13:41:01;95175.28;;;9.27
24278;BMP280;12394;42.692;23.314;2024-01-25T13:43:27;95174.16;;;9.31
24278;BMP280;12394;42.692;23.314;2024-01-25T13:45:54;95188.69;;;9.11
24278;BMP280;12394;42.692;23.314;2024-01-25T13:48:20;95197.97;;;8.95
24278;BMP280;12394;42.692;23.314;2024-01-25T13:50:47;95188.66;;;8.93
24278;BMP280;12394;42.692;23.314;2024-01-25T13:53:12;95174.78;;;8.75
24278;BMP280;12394;42.692;23.314;2024-01-25T13:55:38;95174.09;;;8.89
24278;BMP280;12394;42.692;23.314;2024-01-25T13:58:03;95179.63;;;8.70
24278;BMP280;12394;42.692;23.314;2024-01-25T14:00:49;95174.69;;;8.54
24278;BMP280;12394;42.692;23.314;2024-01-25T14:03:15;95168.28;;;8.30
24278;BMP280;12394;42.692;23.314;2024-01-25T14:05:42;95185.34;;;8.28